createdAt,value
2018-09-11T00:00:04.555Z,66.78
2018-09-11T00:01:04.548Z,66.24
2018-09-11T00:02:04.571Z,65.27
2018-09-11T00:03:04.559Z,65.95
2018-09-11T00:04:04.608Z,66.04
2018-09-11T00:05:04.564Z,66.04
2018-09-11T00:06:04.558Z,66.04
2018-09-11T00:07:04.691Z,66.04
2018-09-11T00:08:04.572Z,67.07
2018-09-11T00:09:04.576Z,66.14
2018-09-11T00:10:04.580Z,66.33
2018-09-11T00:11:04.581Z,66.52
2018-09-11T00:12:04.587Z,66.04
2018-09-11T00:13:04.591Z,66.39
2018-09-11T00:14:04.588Z,67.46
2018-09-11T00:15:04.592Z,68.04
2018-09-11T00:16:04.622Z,68.96
2018-09-11T00:17:04.626Z,68.48
2018-09-11T00:18:04.601Z,67.55
2018-09-11T00:19:04.610Z,66.88
2018-09-11T00:20:04.616Z,66.59
2018-09-11T00:21:04.633Z,66.69
2018-09-11T00:22:04.619Z,67.46
2018-09-11T00:23:04.625Z,66.78
2018-09-11T00:24:04.628Z,67.94
2018-09-11T00:25:04.630Z,67.65
2018-09-11T00:26:04.649Z,66.33
2018-09-11T00:27:04.649Z,66.49
2018-09-11T00:28:04.633Z,67.36
2018-09-11T00:29:04.642Z,67.84
2018-09-11T00:30:04.649Z,67.84
2018-09-11T00:31:04.646Z,67.26
2018-09-11T00:32:04.644Z,65.75
2018-09-11T00:33:04.656Z,66.39
2018-09-11T00:34:04.676Z,66.24
2018-09-11T00:35:04.659Z,66.49
2018-09-11T00:36:04.657Z,66.88
2018-09-11T00:37:04.665Z,66.59
2018-09-11T00:38:04.666Z,66.69
2018-09-11T00:39:04.671Z,66.33
2018-09-11T00:40:04.676Z,66.01
2018-09-11T00:41:04.688Z,67.74
2018-09-11T00:42:04.835Z,67.74
2018-09-11T00:43:04.688Z,67.94
2018-09-11T00:44:04.685Z,66.39
2018-09-11T00:45:04.775Z,66.43
2018-09-11T00:46:04.753Z,66.24
2018-09-11T00:47:04.689Z,66.24
2018-09-11T00:48:04.751Z,67.55
2018-09-11T00:49:04.699Z,67.16
2018-09-11T00:50:04.708Z,66.88
2018-09-11T00:51:04.733Z,67.00
2018-09-11T00:52:04.725Z,66.52
2018-09-11T00:53:04.712Z,66.04
2018-09-11T00:54:04.713Z,66.49
2018-09-11T00:55:04.735Z,68.48
2018-09-11T00:56:04.723Z,68.87
2018-09-11T00:57:04.733Z,69.79
2018-09-11T00:58:04.726Z,69.25
2018-09-11T00:59:04.726Z,68.38
2018-09-11T01:00:04.733Z,69.35
2018-09-11T01:01:04.766Z,69.83
2018-09-11T01:02:04.735Z,69.79
2018-09-11T01:03:04.748Z,70.47
2018-09-11T01:04:04.771Z,70.86
2018-09-11T01:05:04.758Z,70.21
2018-09-11T01:06:04.745Z,69.35
2018-09-11T01:07:04.748Z,70.31
2018-09-11T01:08:04.785Z,67.65
2018-09-11T01:09:04.763Z,67.84
2018-09-11T01:10:04.806Z,68.77
2018-09-11T01:11:04.764Z,68.42
2018-09-11T01:12:04.798Z,69.35
2018-09-11T01:13:04.808Z,67.65
2018-09-11T01:14:04.794Z,67.74
2018-09-11T01:15:04.775Z,67.65
2018-09-11T01:16:04.789Z,66.97
2018-09-11T01:17:04.851Z,68.13
2018-09-11T01:18:04.950Z,68.77
2018-09-11T01:19:04.783Z,69.54
2018-09-11T01:20:04.812Z,69.25
2018-09-11T01:21:04.815Z,68.04
2018-09-11T01:22:04.840Z,68.77
2018-09-11T01:23:04.796Z,69.35
2018-09-11T01:24:04.815Z,70.09
2018-09-11T01:25:04.804Z,71.14
2018-09-11T01:26:04.921Z,70.95
2018-09-11T01:27:04.823Z,70.28
2018-09-11T01:28:04.818Z,70.56
2018-09-11T01:29:04.814Z,70.37
2018-09-11T01:30:04.858Z,71.91
2018-09-11T01:31:04.832Z,73.22
2018-09-11T01:32:04.847Z,73.32
2018-09-11T01:33:04.838Z,72.30
2018-09-11T01:34:04.821Z,72.01
2018-09-11T01:35:04.822Z,72.11
2018-09-11T01:36:04.851Z,70.37
2018-09-11T01:37:04.850Z,70.86
2018-09-11T01:38:04.836Z,70.47
2018-09-11T01:39:04.866Z,70.95
2018-09-11T01:40:04.844Z,71.62
2018-09-11T01:41:04.868Z,71.72
2018-09-11T01:42:04.860Z,71.81
2018-09-11T01:43:04.859Z,71.04
2018-09-11T01:44:04.888Z,71.62
2018-09-11T01:45:04.844Z,72.20
2018-09-11T01:46:04.906Z,72.84
2018-09-11T01:47:04.856Z,72.65
2018-09-11T01:48:04.864Z,72.01
2018-09-11T01:49:04.889Z,71.04
2018-09-11T01:50:04.866Z,72.30
2018-09-11T01:51:04.891Z,73.71
2018-09-11T01:52:04.897Z,72.94
2018-09-11T01:53:04.906Z,73.90
2018-09-11T01:54:04.981Z,72.65
2018-09-11T01:55:04.878Z,72.59
2018-09-11T01:56:04.931Z,72.20
2018-09-11T01:57:04.913Z,72.55
2018-09-11T01:58:04.918Z,73.42
2018-09-11T01:59:04.906Z,73.22
2018-09-11T02:00:04.894Z,73.42
2018-09-11T02:01:04.896Z,73.13
2018-09-11T02:02:04.924Z,73.42
2018-09-11T02:03:04.898Z,74.54
2018-09-11T02:04:04.973Z,74.57
2018-09-11T02:05:04.926Z,74.19
2018-09-11T02:06:04.904Z,73.32
2018-09-11T02:07:04.953Z,74.82
2018-09-11T02:08:04.908Z,74.67
2018-09-11T02:09:04.946Z,74.82
2018-09-11T02:10:04.950Z,75.15
2018-09-11T02:11:04.915Z,75.15
2018-09-11T02:12:04.912Z,74.67
2018-09-11T02:13:04.911Z,75.59
2018-09-11T02:14:04.923Z,75.40
2018-09-11T02:15:04.924Z,75.59
2018-09-11T02:16:04.937Z,74.57
2018-09-11T02:17:04.932Z,73.36
2018-09-11T02:18:04.968Z,72.39
2018-09-11T02:19:04.934Z,72.01
2018-09-11T02:20:04.966Z,72.68
2018-09-11T02:21:04.940Z,72.49
2018-09-11T02:22:05.031Z,72.30
2018-09-11T02:23:04.945Z,72.68
2018-09-11T02:24:04.970Z,72.30
2018-09-11T02:25:04.949Z,72.59
2018-09-11T02:26:04.956Z,72.11
2018-09-11T02:27:04.985Z,72.39
2018-09-11T02:28:04.947Z,71.81
2018-09-11T02:29:04.959Z,71.76
2018-09-11T02:30:04.963Z,73.16
2018-09-11T02:31:04.954Z,72.59
2018-09-11T02:32:04.960Z,72.59
2018-09-11T02:33:04.965Z,72.39
2018-09-11T02:34:04.965Z,71.53
2018-09-11T02:35:04.964Z,70.89
2018-09-11T02:36:04.992Z,70.98
2018-09-11T02:37:04.969Z,71.14
2018-09-11T02:38:04.978Z,71.53
2018-09-11T02:39:04.968Z,71.34
2018-09-11T02:40:04.976Z,71.62
2018-09-11T02:41:04.980Z,72.11
2018-09-11T02:42:04.976Z,73.26
2018-09-11T02:43:04.985Z,74.76
2018-09-11T02:44:04.988Z,74.29
2018-09-11T02:45:04.990Z,75.02
2018-09-11T02:46:04.997Z,74.57
2018-09-11T02:47:04.993Z,73.90
2018-09-11T02:48:05.021Z,75.02
2018-09-11T02:49:05.014Z,74.67
2018-09-11T02:50:04.992Z,74.29
2018-09-11T02:51:04.998Z,74.19
2018-09-11T02:52:04.999Z,73.36
2018-09-11T02:53:05.036Z,72.88
2018-09-11T02:54:04.999Z,73.80
2018-09-11T02:55:05.008Z,74.86
2018-09-11T03:14:18.113Z,75.05
2018-09-11T03:15:18.073Z,75.44
2018-09-11T03:16:18.066Z,74.96
2018-09-11T03:17:18.102Z,75.44
2018-09-11T03:18:18.062Z,74.38
2018-09-11T03:19:18.064Z,73.55
2018-09-11T03:20:18.063Z,73.94
2018-09-11T03:21:18.061Z,74.29
2018-09-11T03:22:18.059Z,74.19
2018-09-11T03:23:18.060Z,75.40
2018-09-11T03:24:18.061Z,74.86
2018-09-11T03:25:18.056Z,74.29
2018-09-11T03:26:18.060Z,74.57
2018-09-11T03:27:18.068Z,73.94
2018-09-11T03:28:18.058Z,74.29
2018-09-11T03:29:18.070Z,73.94
2018-09-11T03:30:18.108Z,72.59
2018-09-11T03:31:18.089Z,73.61
2018-09-11T03:32:18.069Z,73.99
2018-09-11T03:33:18.075Z,75.11
2018-09-11T03:34:18.066Z,76.36
2018-09-11T03:35:18.082Z,77.33
2018-09-11T03:36:18.073Z,75.44
2018-09-11T03:37:18.084Z,77.13
2018-09-11T03:38:18.083Z,76.94
2018-09-11T03:39:18.092Z,75.34
2018-09-11T03:40:18.084Z,75.54
2018-09-11T03:41:18.081Z,74.96
2018-09-11T03:42:18.085Z,75.63
2018-09-11T03:43:18.090Z,74.67
2018-09-11T03:44:18.141Z,76.84
2018-09-11T03:45:18.083Z,76.17
2018-09-11T03:46:18.104Z,77.67
2018-09-11T03:47:18.091Z,77.76
2018-09-11T03:48:18.101Z,77.04
2018-09-11T03:49:18.090Z,77.71
2018-09-11T03:50:18.098Z,78.34
2018-09-11T03:51:18.092Z,76.46
2018-09-11T03:52:18.108Z,75.73
2018-09-11T03:53:18.095Z,77.71
2018-09-11T03:54:18.101Z,76.84
2018-09-11T03:55:18.118Z,77.58
2018-09-11T03:56:18.133Z,77.86
2018-09-11T03:57:18.110Z,76.46
2018-09-11T03:58:18.284Z,76.26
2018-09-11T03:59:18.220Z,75.88
2018-09-11T04:00:18.119Z,78.06
2018-09-11T04:01:18.135Z,77.13
2018-09-11T04:02:18.143Z,77.86
2018-09-11T04:03:18.120Z,78.15
2018-09-11T04:04:18.140Z,78.63
2018-09-11T04:05:18.170Z,79.11
2018-09-11T04:06:18.174Z,79.69
2018-09-11T04:07:18.139Z,79.94
2018-09-11T04:08:18.173Z,79.21
2018-09-11T04:09:18.150Z,79.88
2018-09-11T04:10:18.152Z,78.63
2018-09-11T04:11:18.123Z,79.02
2018-09-11T04:12:18.139Z,78.06
2018-09-11T04:13:18.132Z,79.40
2018-09-11T04:14:18.192Z,79.65
2018-09-11T04:15:18.133Z,80.13
2018-09-11T04:16:18.138Z,80.04
2018-09-11T04:17:18.160Z,78.73
2018-09-11T04:18:18.170Z,79.60
2018-09-11T04:19:18.257Z,79.65
2018-09-11T04:20:18.160Z,77.96
2018-09-11T04:21:18.175Z,79.11
2018-09-11T04:22:18.176Z,79.40
2018-09-11T04:23:18.156Z,78.53
2018-09-11T04:24:18.175Z,79.11
2018-09-11T04:25:18.445Z,79.40
2018-09-11T04:26:18.209Z,78.06
2018-09-11T04:27:18.207Z,78.63
2018-09-11T04:28:18.159Z,78.06
2018-09-11T04:29:18.196Z,78.34
2018-09-11T04:30:18.246Z,78.73
2018-09-11T04:31:18.204Z,78.06
2018-09-11T04:32:18.358Z,77.19
2018-09-11T04:33:18.178Z,78.83
2018-09-11T04:34:18.205Z,79.11
2018-09-11T04:35:18.212Z,79.60
2018-09-11T04:36:18.194Z,78.63
2018-09-11T04:37:18.197Z,79.60
2018-09-11T04:38:18.174Z,77.09
2018-09-11T04:39:18.204Z,78.15
2018-09-11T04:40:18.198Z,76.56
2018-09-11T04:41:18.216Z,77.19
2018-09-11T04:42:18.210Z,78.73
2018-09-11T04:43:18.222Z,77.76
2018-09-11T04:44:18.296Z,77.48
2018-09-11T04:45:18.184Z,75.88
2018-09-11T04:46:18.192Z,76.17
2018-09-11T04:47:18.228Z,77.29
2018-09-11T04:48:18.240Z,77.00
2018-09-11T04:49:18.194Z,79.30
2018-09-11T04:50:18.203Z,76.36
2018-09-11T04:51:18.194Z,77.00
2018-09-11T04:52:18.229Z,75.69
2018-09-11T04:53:18.225Z,75.40
2018-09-11T04:54:18.232Z,75.88
2018-09-11T04:55:18.273Z,75.69
2018-09-11T04:56:18.200Z,76.46
2018-09-11T04:57:18.198Z,76.07
2018-09-11T04:58:18.210Z,77.09
2018-09-11T04:59:18.228Z,76.56
2018-09-11T05:00:18.218Z,76.36
2018-09-11T05:01:18.214Z,75.02
2018-09-11T05:02:18.217Z,75.24
2018-09-11T05:03:18.235Z,75.88
2018-09-11T05:04:18.221Z,75.59
2018-09-11T05:05:18.221Z,75.49
2018-09-11T05:06:18.223Z,75.88
2018-09-11T05:07:18.223Z,77.09
2018-09-11T05:08:18.227Z,76.84
2018-09-11T05:09:18.219Z,77.76
2018-09-11T05:10:18.224Z,78.63
2018-09-11T05:11:18.290Z,77.67
2018-09-11T05:12:18.253Z,76.75
2018-09-11T05:13:18.251Z,75.88
2018-09-11T05:14:18.230Z,77.00
2018-09-11T05:15:18.269Z,77.58
2018-09-11T05:16:18.254Z,78.00
2018-09-11T05:17:18.268Z,75.88
2018-09-11T05:18:18.244Z,76.61
2018-09-11T05:19:18.341Z,78.15
2018-09-11T05:20:18.245Z,78.73
2018-09-11T05:21:18.255Z,77.48
2018-09-11T05:22:18.257Z,79.02
2018-09-11T05:23:18.261Z,79.55
2018-09-11T05:24:18.279Z,78.73
2018-09-11T05:25:18.248Z,79.84
2018-09-11T05:26:18.247Z,79.84
2018-09-11T05:27:18.302Z,80.90
2018-09-11T05:28:18.269Z,80.80
2018-09-11T05:29:18.260Z,78.63
2018-09-11T05:30:18.285Z,78.15
2018-09-11T05:31:18.297Z,79.55
2018-09-11T05:32:18.284Z,78.53
2018-09-11T05:33:18.287Z,78.63
2018-09-11T05:34:18.266Z,78.53
2018-09-11T05:35:18.302Z,78.73
2018-09-11T05:36:18.271Z,79.79
2018-09-11T05:37:18.288Z,79.98
2018-09-11T05:38:18.280Z,78.63
2018-09-11T05:39:18.286Z,78.53
2018-09-11T05:40:18.285Z,78.06
2018-09-11T05:41:18.310Z,78.00
2018-09-11T05:42:18.323Z,77.04
2018-09-11T05:43:18.295Z,76.31
2018-09-11T05:44:18.308Z,76.65
2018-09-11T05:45:18.308Z,77.90
2018-09-11T05:46:18.319Z,76.65
2018-09-11T05:47:18.325Z,76.94
2018-09-11T05:48:18.339Z,75.82
2018-09-11T05:49:18.344Z,75.63
2018-09-11T05:50:18.327Z,75.82
2018-09-11T05:51:18.333Z,75.73
2018-09-11T05:52:18.337Z,75.63
2018-09-11T05:53:18.336Z,76.59
2018-09-11T05:54:18.340Z,77.61
2018-09-11T05:55:18.355Z,76.01
2018-09-11T05:56:18.348Z,75.44
2018-09-11T05:57:18.355Z,76.11
2018-09-11T05:58:18.397Z,75.44
2018-09-11T05:59:18.365Z,75.05
2018-09-11T06:00:18.364Z,75.44
2018-09-11T06:01:18.378Z,74.96
2018-09-11T06:02:18.383Z,74.57
2018-09-11T06:03:18.377Z,75.73
2018-09-11T06:04:18.378Z,75.73
2018-09-11T06:05:18.382Z,75.05
2018-09-11T06:06:18.379Z,75.24
2018-09-11T06:07:18.388Z,74.86
2018-09-11T06:08:18.391Z,74.38
2018-09-11T06:09:18.389Z,75.24
2018-09-11T06:10:18.402Z,76.21
2018-09-11T06:11:18.399Z,75.54
2018-09-11T06:12:18.414Z,76.26
2018-09-11T06:13:18.420Z,75.63
2018-09-11T06:14:18.408Z,74.76
2018-09-11T06:15:18.417Z,74.96
2018-09-11T06:16:18.429Z,75.73
2018-09-11T06:17:18.440Z,75.34
2018-09-11T06:18:18.419Z,75.73
2018-09-11T06:19:18.430Z,74.48
2018-09-11T06:20:18.430Z,75.34
2018-09-11T06:21:18.494Z,74.86
2018-09-11T06:22:18.431Z,75.34
2018-09-11T06:23:18.433Z,75.73
2018-09-11T06:24:18.459Z,75.05
2018-09-11T06:25:18.442Z,74.57
2018-09-11T06:26:18.448Z,74.03
2018-09-11T06:27:18.476Z,74.32
2018-09-11T06:28:18.461Z,73.74
2018-09-11T06:29:18.476Z,73.74
2018-09-11T06:30:18.456Z,73.99
2018-09-11T06:31:18.476Z,74.67
2018-09-11T06:32:18.468Z,73.90
2018-09-11T06:33:18.457Z,74.32
2018-09-11T06:34:18.466Z,73.84
2018-09-11T06:35:18.471Z,73.65
2018-09-11T06:36:18.487Z,74.29
2018-09-11T06:37:18.476Z,74.19
2018-09-11T06:38:18.489Z,74.48
2018-09-11T06:39:18.477Z,74.19
2018-09-11T06:40:18.486Z,73.74
2018-09-11T06:41:18.536Z,73.65
2018-09-11T06:42:18.480Z,73.65
2018-09-11T06:43:18.493Z,73.65
2018-09-11T06:44:18.499Z,73.74
2018-09-11T06:45:18.495Z,73.65
2018-09-11T06:46:18.531Z,74.13
2018-09-11T06:47:18.507Z,74.57
2018-09-11T06:48:18.507Z,74.48
2018-09-11T06:49:18.509Z,74.29
2018-09-11T06:50:18.507Z,74.48
2018-09-11T06:51:18.540Z,74.57
2018-09-11T06:52:18.534Z,74.57
2018-09-11T06:53:18.531Z,74.67
2018-09-11T06:54:18.545Z,75.15
2018-09-11T06:55:18.531Z,74.57
2018-09-11T06:56:18.528Z,74.57
2018-09-11T06:57:18.524Z,74.86
2018-09-11T06:58:18.527Z,74.03
2018-09-11T06:59:18.533Z,73.74
2018-09-11T07:00:18.561Z,73.65
2018-09-11T07:01:18.535Z,73.16
2018-09-11T07:02:18.542Z,73.46
2018-09-11T07:03:18.541Z,73.26
2018-09-11T07:04:18.560Z,74.22
2018-09-11T07:05:18.566Z,74.13
2018-09-11T07:06:18.597Z,73.94
2018-09-11T07:07:18.555Z,74.22
2018-09-11T07:08:18.599Z,74.22
2018-09-11T07:09:18.643Z,74.32
2018-09-11T07:10:18.597Z,73.65
2018-09-11T07:11:18.567Z,73.61
2018-09-11T07:12:18.578Z,74.03
2018-09-11T07:13:18.564Z,73.65
2018-09-11T07:14:18.576Z,73.55
2018-09-11T07:15:18.569Z,73.65
2018-09-11T07:16:18.593Z,73.55
2018-09-11T07:17:18.593Z,73.46
2018-09-11T07:18:18.583Z,73.55
2018-09-11T07:19:18.588Z,73.16
2018-09-11T07:20:18.842Z,73.46
2018-09-11T07:21:18.599Z,73.84
2018-09-11T07:22:18.596Z,73.46
2018-09-11T07:23:18.615Z,72.97
2018-09-11T07:24:18.601Z,72.78
2018-09-11T07:25:18.597Z,73.55
2018-09-11T07:26:18.612Z,73.07
2018-09-11T07:27:18.615Z,72.88
2018-09-11T07:28:18.627Z,72.88
2018-09-11T07:29:18.661Z,72.78
2018-09-11T07:30:18.635Z,73.07
2018-09-11T07:31:18.672Z,73.16
2018-09-11T07:32:18.673Z,72.78
2018-09-11T07:33:18.623Z,73.07
2018-09-11T07:34:18.623Z,73.07
2018-09-11T07:35:18.640Z,72.68
2018-09-11T07:36:18.632Z,72.88
2018-09-11T07:37:18.635Z,72.78
2018-09-11T07:38:18.634Z,72.59
2018-09-11T07:39:18.648Z,72.97
2018-09-11T07:40:18.644Z,72.59
2018-09-11T07:41:18.645Z,72.49
2018-09-11T07:42:18.640Z,72.39
2018-09-11T07:43:18.648Z,72.78
2018-09-11T07:44:18.674Z,72.78
2018-09-11T07:45:18.703Z,72.78
2018-09-11T07:46:18.654Z,72.97
2018-09-11T07:47:18.666Z,73.16
2018-09-11T07:48:18.667Z,72.78
2018-09-11T07:49:18.690Z,72.81
2018-09-11T07:50:18.672Z,72.91
2018-09-11T07:51:18.672Z,73.26
2018-09-11T07:52:18.710Z,73.01
2018-09-11T07:53:18.682Z,73.10
2018-09-11T07:54:18.686Z,72.81
2018-09-11T07:55:18.688Z,72.81
2018-09-11T07:56:18.691Z,72.63
2018-09-11T07:57:18.688Z,72.81
2018-09-11T07:58:18.690Z,72.53
2018-09-11T07:59:18.696Z,72.72
2018-09-11T08:00:18.697Z,72.72
2018-09-11T08:01:18.702Z,72.81
2018-09-11T08:02:18.705Z,72.24
2018-09-11T08:03:18.706Z,72.24
2018-09-11T08:04:18.810Z,72.05
2018-09-11T08:05:18.826Z,72.14
2018-09-11T08:06:18.718Z,72.14
2018-09-11T08:07:18.715Z,72.14
2018-09-11T08:08:18.715Z,72.24
2018-09-11T08:09:18.728Z,72.24
2018-09-11T08:10:18.720Z,72.14
2018-09-11T08:11:18.728Z,71.66
2018-09-11T08:12:18.741Z,71.60
2018-09-11T08:13:18.734Z,71.56
2018-09-11T08:14:18.740Z,70.92
2018-09-11T08:15:18.742Z,71.12
2018-09-11T08:16:18.818Z,70.83
2018-09-11T08:17:18.756Z,71.02
2018-09-11T08:18:18.749Z,70.44
2018-09-11T08:19:18.779Z,70.54
2018-09-11T08:20:18.759Z,70.54
2018-09-11T08:21:18.760Z,71.18
2018-09-11T08:22:18.758Z,70.54
2018-09-11T08:23:18.764Z,70.64
2018-09-11T08:24:18.771Z,70.35
2018-09-11T08:25:18.766Z,69.57
2018-09-11T08:26:18.765Z,69.77
2018-09-11T08:27:18.771Z,70.15
2018-09-11T08:28:18.788Z,70.35
2018-09-11T08:29:18.817Z,69.96
2018-09-11T08:30:18.788Z,69.67
2018-09-11T08:31:18.794Z,69.87
2018-09-11T08:32:18.790Z,69.29
2018-09-11T08:33:18.792Z,68.99
2018-09-11T08:34:18.807Z,68.42
2018-09-11T08:35:18.798Z,69.29
2018-09-11T08:36:18.803Z,69.19
2018-09-11T08:37:18.803Z,68.99
2018-09-11T08:38:18.803Z,69.29
2018-09-11T08:39:18.832Z,69.48
2018-09-11T08:40:18.814Z,69.19
2018-09-11T08:41:18.828Z,68.80
2018-09-11T08:42:18.824Z,68.52
2018-09-11T08:43:18.828Z,68.52
2018-09-11T08:44:18.831Z,68.13
2018-09-11T08:45:18.846Z,67.78
2018-09-11T08:46:18.835Z,67.88
2018-09-11T08:47:18.834Z,67.88
2018-09-11T08:48:18.842Z,67.78
2018-09-11T08:49:18.843Z,67.68
2018-09-11T08:50:18.846Z,66.91
2018-09-11T08:51:18.858Z,67.10
2018-09-11T08:52:18.925Z,67.30
2018-09-11T08:53:18.862Z,67.40
2018-09-11T08:54:18.860Z,66.91
2018-09-11T08:55:18.874Z,67.40
2018-09-11T08:56:18.865Z,67.78
2018-09-11T08:57:18.871Z,68.16
2018-09-11T08:58:18.875Z,68.16
2018-09-11T08:59:18.908Z,67.97
2018-09-11T09:00:18.885Z,67.40
2018-09-11T09:01:18.883Z,67.91
2018-09-11T09:02:18.890Z,67.33
2018-09-11T09:03:18.914Z,67.04
2018-09-11T09:04:18.900Z,66.56
2018-09-11T09:05:18.902Z,66.46
2018-09-11T09:06:18.902Z,66.56
2018-09-11T09:07:18.907Z,66.27
2018-09-11T09:08:18.914Z,66.46
2018-09-11T09:09:18.913Z,67.10
2018-09-11T09:10:18.919Z,67.40
2018-09-11T09:11:18.944Z,67.68
2018-09-11T09:12:18.930Z,67.04
2018-09-11T09:13:18.935Z,66.56
2018-09-11T09:14:18.950Z,66.08
2018-09-11T09:15:18.970Z,66.08
2018-09-11T09:16:18.934Z,65.98
2018-09-11T09:17:18.967Z,66.27
2018-09-11T09:18:18.943Z,66.08
2018-09-11T09:19:18.953Z,65.78
2018-09-11T09:20:18.954Z,66.27
2018-09-11T09:21:18.971Z,65.88
2018-09-11T09:22:18.954Z,65.40
2018-09-11T09:23:18.962Z,65.59
2018-09-11T09:24:18.964Z,66.24
2018-09-11T09:25:18.965Z,65.11
2018-09-11T09:26:18.968Z,64.72
2018-09-11T09:27:18.985Z,64.72
2018-09-11T09:28:18.973Z,64.37
2018-09-11T09:29:18.982Z,64.24
2018-09-11T09:30:18.980Z,64.34
2018-09-11T09:31:18.989Z,64.43
2018-09-11T09:32:18.996Z,64.24
2018-09-11T09:33:18.991Z,64.82
2018-09-11T09:34:19.001Z,64.72
2018-09-11T09:35:19.008Z,64.82
2018-09-11T09:36:19.051Z,64.82
2018-09-11T09:37:19.017Z,63.98
2018-09-11T09:38:19.015Z,62.54
2018-09-11T09:39:19.029Z,62.73
2018-09-11T09:40:19.022Z,64.28
2018-09-11T09:41:19.027Z,63.21
2018-09-11T09:42:19.031Z,62.25
2018-09-11T09:43:19.038Z,62.73
2018-09-11T09:44:19.047Z,62.79
2018-09-11T09:45:19.036Z,63.18
2018-09-11T09:46:19.043Z,63.37
2018-09-11T09:47:19.071Z,63.67
2018-09-11T09:48:19.095Z,62.73
2018-09-11T09:49:19.050Z,61.99
2018-09-11T09:50:19.061Z,61.99
2018-09-11T09:51:19.158Z,62.44
2018-09-11T09:52:19.075Z,62.99
2018-09-11T09:53:19.119Z,63.47
2018-09-11T09:54:19.083Z,62.15
2018-09-11T09:55:19.086Z,61.77
2018-09-11T09:56:19.078Z,61.67
2018-09-11T09:57:19.265Z,61.89
2018-09-11T09:58:19.127Z,61.57
2018-09-11T09:59:19.089Z,61.89
2018-09-11T10:00:19.166Z,62.15
2018-09-11T10:01:19.188Z,61.89
2018-09-11T10:02:19.168Z,61.89
2018-09-11T10:03:19.137Z,61.89
2018-09-11T10:04:19.165Z,61.60
2018-09-11T10:05:19.112Z,60.64
2018-09-11T10:06:19.255Z,61.41
2018-09-11T10:07:19.120Z,61.80
2018-09-11T10:08:19.123Z,61.60
2018-09-11T10:09:19.140Z,61.44
2018-09-11T10:10:19.227Z,60.86
2018-09-11T10:11:19.141Z,60.47
2018-09-11T10:12:19.160Z,60.86
2018-09-11T10:13:19.174Z,61.44
2018-09-11T10:14:19.157Z,61.41
2018-09-11T10:15:19.207Z,61.60
2018-09-11T10:16:19.174Z,61.80
2018-09-11T10:17:19.195Z,62.57
2018-09-11T10:18:19.183Z,61.80
2018-09-11T10:19:19.179Z,61.41
2018-09-11T10:20:19.235Z,61.67
2018-09-11T10:21:19.193Z,62.18
2018-09-11T10:22:19.231Z,62.25
2018-09-11T10:23:19.189Z,62.63
2018-09-11T10:24:19.219Z,62.82
2018-09-11T10:25:19.191Z,62.15
2018-09-11T10:26:19.306Z,61.89
2018-09-11T10:27:19.210Z,61.31
2018-09-11T10:28:19.204Z,61.60
2018-09-11T10:29:19.219Z,60.96
2018-09-11T10:30:19.230Z,60.57
2018-09-11T10:31:19.224Z,60.57
2018-09-11T10:32:19.242Z,60.73
2018-09-11T10:33:19.244Z,61.12
2018-09-11T10:34:19.244Z,61.41
2018-09-11T10:35:19.265Z,61.60
2018-09-11T10:36:19.237Z,61.22
2018-09-11T10:37:19.250Z,60.57
2018-09-11T10:38:19.243Z,60.35
2018-09-11T10:39:19.262Z,60.44
2018-09-11T10:40:19.250Z,59.89
2018-09-11T10:41:19.260Z,59.22
2018-09-11T10:42:19.282Z,58.73
2018-09-11T10:43:19.303Z,58.09
2018-09-11T10:44:19.296Z,58.37
2018-09-11T10:45:19.610Z,58.37
2018-09-11T10:46:19.302Z,58.73
2018-09-11T10:47:19.308Z,58.73
2018-09-11T10:48:19.294Z,59.38
2018-09-11T10:49:19.305Z,58.93
2018-09-11T10:50:19.311Z,57.12
2018-09-11T10:51:19.318Z,56.99
2018-09-11T10:52:19.332Z,56.45
2018-09-11T10:53:19.313Z,56.45
2018-09-11T10:54:19.319Z,56.35
2018-09-11T10:55:19.344Z,56.45
2018-09-11T10:56:19.330Z,56.18
2018-09-11T10:57:19.330Z,56.15
2018-09-11T10:58:19.377Z,56.63
2018-09-11T10:59:19.336Z,55.77
2018-09-11T11:00:19.354Z,56.25
2018-09-11T11:01:19.353Z,57.38
2018-09-11T11:02:19.389Z,57.15
2018-09-11T11:03:19.355Z,55.47
2018-09-11T11:04:19.356Z,54.05
2018-09-11T11:05:19.368Z,53.69
2018-09-11T11:06:19.373Z,54.05
2018-09-11T11:07:19.372Z,54.53
2018-09-11T11:08:19.377Z,53.86
2018-09-11T11:09:19.382Z,53.77
2018-09-11T11:10:19.401Z,54.05
2018-09-11T11:11:19.396Z,54.05
2018-09-11T11:12:19.397Z,54.25
2018-09-11T11:13:19.405Z,54.99
2018-09-11T11:14:19.413Z,54.63
2018-09-11T11:15:19.415Z,54.08
2018-09-11T11:16:19.438Z,52.36
2018-09-11T11:17:19.433Z,52.95
2018-09-11T11:18:19.430Z,52.46
2018-09-11T11:19:19.439Z,52.56
2018-09-11T11:20:19.455Z,53.21
2018-09-11T11:21:19.445Z,53.23
2018-09-11T11:22:19.453Z,52.66
2018-09-11T11:23:19.466Z,52.56
2018-09-11T11:24:19.483Z,52.75
2018-09-11T11:25:19.472Z,53.69
2018-09-11T11:26:19.480Z,53.41
2018-09-11T11:27:19.552Z,53.41
2018-09-11T11:28:19.477Z,53.63
2018-09-11T11:29:19.500Z,53.89
2018-09-11T11:30:19.489Z,54.35
2018-09-11T11:31:19.498Z,54.53
2018-09-11T11:32:19.516Z,54.44
2018-09-11T11:33:19.515Z,54.17
2018-09-11T11:34:19.507Z,54.25
2018-09-11T11:35:19.528Z,53.89
2018-09-11T11:36:19.712Z,53.69
2018-09-11T11:37:19.788Z,53.04
2018-09-11T11:38:19.526Z,54.17
2018-09-11T11:39:19.532Z,54.08
2018-09-11T11:40:19.549Z,54.75
2018-09-11T11:41:19.544Z,54.37
2018-09-11T11:42:19.643Z,54.95
2018-09-11T11:43:19.543Z,54.85
2018-09-11T11:44:19.572Z,54.53
2018-09-11T11:45:19.576Z,54.37
2018-09-11T11:46:19.560Z,54.27
2018-09-11T11:47:19.575Z,54.21
2018-09-11T11:48:19.646Z,54.01
2018-09-11T11:49:19.589Z,53.69
2018-09-11T11:50:19.583Z,53.79
2018-09-11T11:51:19.588Z,54.27
2018-09-11T11:52:19.606Z,54.37
2018-09-11T11:53:19.599Z,54.63
2018-09-11T11:54:19.606Z,55.11
2018-09-11T11:55:19.653Z,54.95
2018-09-11T11:56:19.613Z,53.99
2018-09-11T11:57:19.622Z,54.37
2018-09-11T11:58:19.641Z,53.72
2018-09-11T11:59:19.633Z,53.53
2018-09-11T12:00:19.702Z,52.46
2018-09-11T12:01:19.665Z,53.41
2018-09-11T12:02:19.654Z,54.57
2018-09-11T12:03:19.650Z,53.43
2018-09-11T12:04:19.656Z,52.85
2018-09-11T12:05:19.664Z,52.75
2018-09-11T12:06:19.665Z,53.23
2018-09-11T12:07:19.677Z,53.23
2018-09-11T12:08:19.680Z,53.53
2018-09-11T12:09:19.707Z,53.43
2018-09-11T12:10:19.692Z,53.72
2018-09-11T12:11:19.697Z,52.97
2018-09-11T12:12:19.773Z,52.87
2018-09-11T12:13:19.704Z,52.58
2018-09-11T12:14:19.711Z,52.39
2018-09-11T12:15:19.721Z,52.58
2018-09-11T12:16:19.792Z,52.78
2018-09-11T12:17:19.772Z,52.97
2018-09-11T12:18:19.732Z,52.39
2018-09-11T12:19:19.737Z,52.87
2018-09-11T12:20:19.744Z,53.04
2018-09-11T12:21:19.754Z,53.45
2018-09-11T12:22:19.750Z,52.49
2018-09-11T12:23:19.761Z,51.93
2018-09-11T12:24:19.766Z,51.64
2018-09-11T12:25:19.782Z,51.35
2018-09-11T12:26:19.840Z,52.68
2018-09-11T12:27:19.778Z,52.58
2018-09-11T12:28:19.794Z,51.81
2018-09-11T12:29:19.795Z,51.81
2018-09-11T12:30:19.804Z,52.29
2018-09-11T12:31:19.816Z,52.00
2018-09-11T12:32:19.821Z,51.72
2018-09-11T12:33:19.813Z,52.87
2018-09-11T12:34:19.829Z,52.10
2018-09-11T12:35:19.842Z,51.90
2018-09-11T12:36:19.829Z,52.29
2018-09-11T12:37:19.841Z,52.00
2018-09-11T12:38:19.846Z,51.52
2018-09-11T12:39:28.495Z,51.74
2018-09-11T12:41:13.290Z,51.52
2018-09-11T12:42:13.258Z,51.81
2018-09-11T12:43:13.271Z,51.54
2018-09-11T12:44:13.280Z,51.25
2018-09-11T12:45:13.279Z,50.02
2018-09-11T12:46:13.508Z,49.92
2018-09-11T12:47:13.598Z,49.92
2018-09-11T12:48:13.635Z,50.77
2018-09-11T12:49:13.310Z,51.81
2018-09-11T12:50:13.303Z,52.58
2018-09-11T12:51:13.325Z,51.64
2018-09-11T12:52:13.313Z,50.12
2018-09-11T12:53:13.326Z,50.38
2018-09-11T12:54:13.326Z,51.42
2018-09-11T12:55:13.335Z,51.13
2018-09-11T12:56:13.341Z,49.92
2018-09-11T12:57:13.337Z,49.34
2018-09-11T12:58:13.356Z,49.24
2018-09-11T12:59:13.360Z,48.85
2018-09-11T13:00:13.358Z,48.76
2018-09-11T13:01:13.366Z,48.66
2018-09-11T13:02:13.372Z,48.39
2018-09-11T13:03:13.396Z,48.59
2018-09-11T13:04:13.396Z,48.95
2018-09-11T13:05:13.393Z,49.05
2018-09-11T13:06:13.399Z,50.19
2018-09-11T13:07:13.408Z,49.63
2018-09-11T13:08:13.413Z,48.97
2018-09-11T13:09:13.484Z,48.39
2018-09-11T13:10:13.425Z,48.30
2018-09-11T13:11:13.424Z,47.81